sensor_id;sensor_type;location;lat;lon;timestamp;P1;durP1;ratioP1;P2;durP2;ratioP2
15567;SDS011;7885;42.596;23.044;2024-02-04T00:00:46;99.90;;;57.00;;
15567;SDS011;7885;42.596;23.044;2024-02-04T00:03:13;124.60;;;67.63;;
15567;SDS011;7885;42.596;23.044;2024-02-04T00:05:40;106.73;;;54.93;;
15567;SDS011;7885;42.596;23.044;2024-02-04T00:08:07;215.60;;;104.30;;
15567;SDS011;7885;42.596;23.044;2024-02-04T00:10:34;172.00;;;81.07;;
15567;SDS011;7885;42.596;23.044;2024-02-04T00:13:02;158.40;;;79.13;;
15567;SDS011;7885;42.596;23.044;2024-02-04T00:15:29;152.87;;;78.63;;
15567;SDS011;7885;42.596;23.044;2024-02-04T00:17:57;151.47;;;75.57;;
15567;SDS011;7885;42.596;23.044;2024-02-04T00:20:23;130.30;;;64.37;;
15567;SDS011;7885;42.596;23.044;2024-02-04T00:22:52;128.40;;;66.13;;
15567;SDS011;7885;42.596;23.044;2024-02-04T00:25:19;97.07;;;50.13;;
15567;SDS011;7885;42.596;23.044;2024-02-04T00:27:46;116.57;;;59.00;;
15567;SDS011;7885;42.596;23.044;2024-02-04T00:30:14;78.00;;;42.90;;
15567;SDS011;7885;42.596;23.044;2024-02-04T00:32:42;108.83;;;56.67;;
15567;SDS011;7885;42.596;23.044;2024-02-04T00:35:08;117.27;;;61.57;;
15567;SDS011;7885;42.596;23.044;2024-02-04T00:37:35;97.50;;;51.20;;
15567;SDS011;7885;42.596;23.044;2024-02-04T00:40:02;85.03;;;47.00;;
15567;SDS011;7885;42.596;23.044;2024-02-04T00:42:30;128.50;;;69.87;;
15567;SDS011;7885;42.596;23.044;2024-02-04T00:44:57;149.93;;;81.00;;
15567;SDS011;7885;42.596;23.044;2024-02-04T00:47:25;110.93;;;60.87;;
15567;SDS011;7885;42.596;23.044;2024-02-04T00:49:52;96.23;;;56.60;;
15567;SDS011;7885;42.596;23.044;2024-02-04T00:52:19;93.57;;;53.73;;
15567;SDS011;7885;42.596;23.044;2024-02-04T00:54:46;103.57;;;59.73;;
15567;SDS011;7885;42.596;23.044;2024-02-04T00:57:12;97.80;;;50.73;;
15567;SDS011;7885;42.596;23.044;2024-02-04T00:59:39;97.83;;;55.30;;
15567;SDS011;7885;42.596;23.044;2024-02-04T01:02:06;89.77;;;53.97;;
15567;SDS011;7885;42.596;23.044;2024-02-04T01:04:34;99.80;;;55.23;;
15567;SDS011;7885;42.596;23.044;2024-02-04T01:07:01;117.93;;;64.43;;
15567;SDS011;7885;42.596;23.044;2024-02-04T01:09:28;113.13;;;63.27;;
15567;SDS011;7885;42.596;23.044;2024-02-04T01:11:55;124.33;;;70.93;;
15567;SDS011;7885;42.596;23.044;2024-02-04T01:14:22;118.90;;;67.13;;
15567;SDS011;7885;42.596;23.044;2024-02-04T01:16:49;113.13;;;63.30;;
15567;SDS011;7885;42.596;23.044;2024-02-04T01:19:16;112.10;;;63.67;;
15567;SDS011;7885;42.596;23.044;2024-02-04T01:21:45;115.13;;;62.90;;
15567;SDS011;7885;42.596;23.044;2024-02-04T01:24:12;107.10;;;60.80;;
15567;SDS011;7885;42.596;23.044;2024-02-04T01:26:39;106.50;;;60.73;;
15567;SDS011;7885;42.596;23.044;2024-02-04T01:29:06;97.20;;;54.63;;
15567;SDS011;7885;42.596;23.044;2024-02-04T01:31:33;105.03;;;54.30;;
15567;SDS011;7885;42.596;23.044;2024-02-04T01:34:00;96.33;;;57.60;;
15567;SDS011;7885;42.596;23.044;2024-02-04T01:36:27;110.13;;;60.60;;
15567;SDS011;7885;42.596;23.044;2024-02-04T01:38:56;104.83;;;61.17;;
15567;SDS011;7885;42.596;23.044;2024-02-04T01:41:23;108.33;;;64.17;;
15567;SDS011;7885;42.596;23.044;2024-02-04T01:43:52;108.60;;;64.43;;
15567;SDS011;7885;42.596;23.044;2024-02-04T01:46:20;102.60;;;61.30;;
15567;SDS011;7885;42.596;23.044;2024-02-04T01:48:47;107.77;;;67.30;;
15567;SDS011;7885;42.596;23.044;2024-02-04T01:51:14;99.67;;;62.33;;
15567;SDS011;7885;42.596;23.044;2024-02-04T01:53:46;101.73;;;56.40;;
15567;SDS011;7885;42.596;23.044;2024-02-04T01:56:16;118.30;;;65.50;;
15567;SDS011;7885;42.596;23.044;2024-02-04T01:58:43;108.93;;;61.07;;
15567;SDS011;7885;42.596;23.044;2024-02-04T02:01:14;103.27;;;59.20;;
15567;SDS011;7885;42.596;23.044;2024-02-04T02:03:41;121.13;;;69.13;;
15567;SDS011;7885;42.596;23.044;2024-02-04T02:06:08;103.80;;;58.90;;
15567;SDS011;7885;42.596;23.044;2024-02-04T02:08:36;107.13;;;57.60;;
15567;SDS011;7885;42.596;23.044;2024-02-04T02:11:05;98.70;;;56.87;;
15567;SDS011;7885;42.596;23.044;2024-02-04T02:13:38;83.67;;;49.27;;
15567;SDS011;7885;42.596;23.044;2024-02-04T02:16:07;90.57;;;51.23;;
15567;SDS011;7885;42.596;23.044;2024-02-04T02:18:40;95.63;;;53.47;;
15567;SDS011;7885;42.596;23.044;2024-02-04T02:21:16;88.27;;;49.33;;
15567;SDS011;7885;42.596;23.044;2024-02-04T02:23:56;84.77;;;50.40;;
15567;SDS011;7885;42.596;23.044;2024-02-04T02:26:31;86.23;;;49.03;;
15567;SDS011;7885;42.596;23.044;2024-02-04T02:29:03;81.40;;;48.37;;
15567;SDS011;7885;42.596;23.044;2024-02-04T02:31:30;91.47;;;50.23;;
15567;SDS011;7885;42.596;23.044;2024-02-04T02:33:57;89.37;;;52.47;;
15567;SDS011;7885;42.596;23.044;2024-02-04T02:36:25;94.53;;;54.20;;
15567;SDS011;7885;42.596;23.044;2024-02-04T02:38:59;83.87;;;49.57;;
15567;SDS011;7885;42.596;23.044;2024-02-04T02:41:36;91.07;;;53.90;;
15567;SDS011;7885;42.596;23.044;2024-02-04T02:44:08;93.93;;;59.00;;
15567;SDS011;7885;42.596;23.044;2024-02-04T02:46:36;85.57;;;52.43;;
15567;SDS011;7885;42.596;23.044;2024-02-04T02:49:03;86.73;;;48.33;;
15567;SDS011;7885;42.596;23.044;2024-02-04T02:51:31;92.40;;;47.63;;
15567;SDS011;7885;42.596;23.044;2024-02-04T02:53:58;78.47;;;43.33;;
15567;SDS011;7885;42.596;23.044;2024-02-04T02:56:25;72.87;;;42.63;;
15567;SDS011;7885;42.596;23.044;2024-02-04T02:58:53;85.63;;;49.87;;
15567;SDS011;7885;42.596;23.044;2024-02-04T03:01:20;94.27;;;54.23;;
15567;SDS011;7885;42.596;23.044;2024-02-04T03:03:48;98.33;;;58.20;;
15567;SDS011;7885;42.596;23.044;2024-02-04T03:06:15;101.27;;;62.83;;
15567;SDS011;7885;42.596;23.044;2024-02-04T03:08:42;114.20;;;74.00;;
15567;SDS011;7885;42.596;23.044;2024-02-04T03:11:09;98.40;;;60.23;;
15567;SDS011;7885;42.596;23.044;2024-02-04T03:13:37;74.43;;;44.47;;
15567;SDS011;7885;42.596;23.044;2024-02-04T03:16:09;81.77;;;42.87;;
15567;SDS011;7885;42.596;23.044;2024-02-04T03:18:36;93.50;;;48.10;;
15567;SDS011;7885;42.596;23.044;2024-02-04T03:21:11;78.13;;;42.57;;
15567;SDS011;7885;42.596;23.044;2024-02-04T03:23:38;85.13;;;46.93;;
15567;SDS011;7885;42.596;23.044;2024-02-04T03:26:05;75.73;;;43.23;;
15567;SDS011;7885;42.596;23.044;2024-02-04T03:28:32;84.20;;;44.30;;
15567;SDS011;7885;42.596;23.044;2024-02-04T03:30:59;81.80;;;47.80;;
15567;SDS011;7885;42.596;23.044;2024-02-04T03:33:27;89.43;;;50.03;;
15567;SDS011;7885;42.596;23.044;2024-02-04T03:35:54;95.83;;;69.70;;
15567;SDS011;7885;42.596;23.044;2024-02-04T03:38:21;72.30;;;41.87;;
15567;SDS011;7885;42.596;23.044;2024-02-04T03:40:48;64.40;;;37.33;;
15567;SDS011;7885;42.596;23.044;2024-02-04T03:43:15;67.87;;;40.47;;
15567;SDS011;7885;42.596;23.044;2024-02-04T03:45:42;77.13;;;47.43;;
15567;SDS011;7885;42.596;23.044;2024-02-04T03:48:08;73.63;;;46.23;;
15567;SDS011;7885;42.596;23.044;2024-02-04T03:50:37;117.53;;;77.60;;
15567;SDS011;7885;42.596;23.044;2024-02-04T03:53:04;89.10;;;56.03;;
15567;SDS011;7885;42.596;23.044;2024-02-04T03:55:30;85.90;;;54.93;;
15567;SDS011;7885;42.596;23.044;2024-02-04T03:57:57;78.23;;;53.10;;
15567;SDS011;7885;42.596;23.044;2024-02-04T04:00:24;68.70;;;43.03;;
15567;SDS011;7885;42.596;23.044;2024-02-04T04:02:51;59.17;;;38.17;;
15567;SDS011;7885;42.596;23.044;2024-02-04T04:05:18;50.40;;;33.90;;
15567;SDS011;7885;42.596;23.044;2024-02-04T04:07:47;55.23;;;35.10;;
15567;SDS011;7885;42.596;23.044;2024-02-04T04:10:13;59.40;;;37.00;;
15567;SDS011;7885;42.596;23.044;2024-02-04T04:12:41;70.70;;;41.63;;
15567;SDS011;7885;42.596;23.044;2024-02-04T04:15:08;73.07;;;41.37;;
15567;SDS011;7885;42.596;23.044;2024-02-04T04:17:35;78.83;;;46.50;;
15567;SDS011;7885;42.596;23.044;2024-02-04T04:20:03;83.73;;;45.67;;
15567;SDS011;7885;42.596;23.044;2024-02-04T04:22:31;66.37;;;38.50;;
15567;SDS011;7885;42.596;23.044;2024-02-04T04:24:59;64.40;;;36.13;;
15567;SDS011;7885;42.596;23.044;2024-02-04T04:27:26;55.20;;;35.07;;
15567;SDS011;7885;42.596;23.044;2024-02-04T04:29:53;70.40;;;42.67;;
15567;SDS011;7885;42.596;23.044;2024-02-04T04:32:20;68.73;;;42.20;;
15567;SDS011;7885;42.596;23.044;2024-02-04T04:34:46;65.70;;;38.27;;
15567;SDS011;7885;42.596;23.044;2024-02-04T04:37:13;66.43;;;37.53;;
15567;SDS011;7885;42.596;23.044;2024-02-04T04:39:40;98.00;;;56.03;;
15567;SDS011;7885;42.596;23.044;2024-02-04T04:42:08;69.03;;;41.40;;
15567;SDS011;7885;42.596;23.044;2024-02-04T04:44:35;85.03;;;47.87;;
15567;SDS011;7885;42.596;23.044;2024-02-04T04:47:02;73.83;;;40.37;;
15567;SDS011;7885;42.596;23.044;2024-02-04T04:49:29;75.67;;;39.70;;
15567;SDS011;7885;42.596;23.044;2024-02-04T04:51:56;79.33;;;40.37;;
15567;SDS011;7885;42.596;23.044;2024-02-04T04:54:23;76.47;;;44.93;;
15567;SDS011;7885;42.596;23.044;2024-02-04T04:56:50;80.47;;;45.60;;
15567;SDS011;7885;42.596;23.044;2024-02-04T04:59:18;83.30;;;46.97;;
15567;SDS011;7885;42.596;23.044;2024-02-04T05:01:45;111.90;;;57.90;;
15567;SDS011;7885;42.596;23.044;2024-02-04T05:04:12;99.27;;;51.27;;
15567;SDS011;7885;42.596;23.044;2024-02-04T05:06:39;82.77;;;45.70;;
15567;SDS011;7885;42.596;23.044;2024-02-04T05:09:06;90.37;;;49.57;;
15567;SDS011;7885;42.596;23.044;2024-02-04T05:14:56;96.47;;;54.70;;
15567;SDS011;7885;42.596;23.044;2024-02-04T05:17:23;99.07;;;54.60;;
15567;SDS011;7885;42.596;23.044;2024-02-04T05:19:50;113.57;;;56.97;;
15567;SDS011;7885;42.596;23.044;2024-02-04T05:22:17;62.33;;;39.50;;
15567;SDS011;7885;42.596;23.044;2024-02-04T05:24:44;44.83;;;30.43;;
15567;SDS011;7885;42.596;23.044;2024-02-04T05:27:11;42.50;;;30.47;;
15567;SDS011;7885;42.596;23.044;2024-02-04T05:29:38;48.07;;;32.07;;
15567;SDS011;7885;42.596;23.044;2024-02-04T05:32:07;61.10;;;39.13;;
15567;SDS011;7885;42.596;23.044;2024-02-04T05:34:34;36.43;;;23.93;;
15567;SDS011;7885;42.596;23.044;2024-02-04T05:37:00;80.03;;;47.33;;
15567;SDS011;7885;42.596;23.044;2024-02-04T05:39:28;103.30;;;56.13;;
15567;SDS011;7885;42.596;23.044;2024-02-04T05:41:54;104.17;;;60.67;;
15567;SDS011;7885;42.596;23.044;2024-02-04T05:44:21;108.83;;;62.47;;
15567;SDS011;7885;42.596;23.044;2024-02-04T05:46:48;110.00;;;63.00;;
15567;SDS011;7885;42.596;23.044;2024-02-04T05:49:16;117.17;;;65.83;;
15567;SDS011;7885;42.596;23.044;2024-02-04T05:51:43;110.43;;;65.87;;
15567;SDS011;7885;42.596;23.044;2024-02-04T05:54:10;110.27;;;70.07;;
15567;SDS011;7885;42.596;23.044;2024-02-04T05:56:37;103.67;;;65.07;;
15567;SDS011;7885;42.596;23.044;2024-02-04T05:59:05;95.77;;;56.37;;
15567;SDS011;7885;42.596;23.044;2024-02-04T06:01:32;85.00;;;52.27;;
15567;SDS011;7885;42.596;23.044;2024-02-04T06:03:59;99.27;;;60.03;;
15567;SDS011;7885;42.596;23.044;2024-02-04T06:06:27;95.83;;;56.53;;
15567;SDS011;7885;42.596;23.044;2024-02-04T06:08:54;91.53;;;57.83;;
15567;SDS011;7885;42.596;23.044;2024-02-04T06:11:21;94.97;;;57.57;;
15567;SDS011;7885;42.596;23.044;2024-02-04T06:13:48;90.60;;;55.17;;
15567;SDS011;7885;42.596;23.044;2024-02-04T06:16:15;85.80;;;53.50;;
15567;SDS011;7885;42.596;23.044;2024-02-04T06:18:42;81.43;;;52.07;;
15567;SDS011;7885;42.596;23.044;2024-02-04T06:21:09;93.20;;;62.50;;
15567;SDS011;7885;42.596;23.044;2024-02-04T06:23:39;76.87;;;49.53;;
15567;SDS011;7885;42.596;23.044;2024-02-04T06:26:05;73.90;;;47.33;;
15567;SDS011;7885;42.596;23.044;2024-02-04T06:28:32;69.90;;;42.47;;
15567;SDS011;7885;42.596;23.044;2024-02-04T06:30:59;60.60;;;34.73;;
15567;SDS011;7885;42.596;23.044;2024-02-04T06:33:27;47.80;;;29.30;;
15567;SDS011;7885;42.596;23.044;2024-02-04T06:35:54;40.10;;;21.73;;
15567;SDS011;7885;42.596;23.044;2024-02-04T06:38:21;45.93;;;26.00;;
15567;SDS011;7885;42.596;23.044;2024-02-04T06:40:49;57.87;;;38.50;;
15567;SDS011;7885;42.596;23.044;2024-02-04T06:43:15;45.37;;;26.47;;
15567;SDS011;7885;42.596;23.044;2024-02-04T06:45:42;53.27;;;34.37;;
15567;SDS011;7885;42.596;23.044;2024-02-04T06:48:09;66.37;;;38.97;;
15567;SDS011;7885;42.596;23.044;2024-02-04T06:50:36;38.07;;;25.60;;
15567;SDS011;7885;42.596;23.044;2024-02-04T06:53:03;53.77;;;32.03;;
15567;SDS011;7885;42.596;23.044;2024-02-04T06:55:29;60.20;;;39.97;;
15567;SDS011;7885;42.596;23.044;2024-02-04T06:57:57;62.33;;;40.77;;
15567;SDS011;7885;42.596;23.044;2024-02-04T07:00:24;69.37;;;44.27;;
15567;SDS011;7885;42.596;23.044;2024-02-04T07:02:51;74.77;;;48.83;;
15567;SDS011;7885;42.596;23.044;2024-02-04T07:05:17;67.03;;;41.63;;
15567;SDS011;7885;42.596;23.044;2024-02-04T07:07:47;74.33;;;46.63;;
15567;SDS011;7885;42.596;23.044;2024-02-04T07:10:13;80.10;;;50.77;;
15567;SDS011;7885;42.596;23.044;2024-02-04T07:12:40;80.10;;;49.67;;
15567;SDS011;7885;42.596;23.044;2024-02-04T07:15:08;86.10;;;57.17;;
15567;SDS011;7885;42.596;23.044;2024-02-04T07:17:35;100.33;;;63.93;;
15567;SDS011;7885;42.596;23.044;2024-02-04T07:20:02;122.03;;;76.17;;
15567;SDS011;7885;42.596;23.044;2024-02-04T07:22:30;103.03;;;67.10;;
15567;SDS011;7885;42.596;23.044;2024-02-04T07:24:56;102.17;;;63.70;;
15567;SDS011;7885;42.596;23.044;2024-02-04T07:27:23;87.73;;;55.07;;
15567;SDS011;7885;42.596;23.044;2024-02-04T07:29:50;92.50;;;59.07;;
15567;SDS011;7885;42.596;23.044;2024-02-04T07:32:18;99.97;;;64.27;;
15567;SDS011;7885;42.596;23.044;2024-02-04T07:34:45;100.60;;;64.53;;
15567;SDS011;7885;42.596;23.044;2024-02-04T07:37:11;103.27;;;68.50;;
15567;SDS011;7885;42.596;23.044;2024-02-04T07:39:39;114.00;;;75.03;;
15567;SDS011;7885;42.596;23.044;2024-02-04T07:42:06;110.07;;;76.07;;
15567;SDS011;7885;42.596;23.044;2024-02-04T07:44:32;96.10;;;64.80;;
15567;SDS011;7885;42.596;23.044;2024-02-04T07:46:59;86.30;;;62.60;;
15567;SDS011;7885;42.596;23.044;2024-02-04T07:49:27;70.33;;;47.53;;
15567;SDS011;7885;42.596;23.044;2024-02-04T07:51:54;56.77;;;42.87;;
15567;SDS011;7885;42.596;23.044;2024-02-04T07:54:20;56.87;;;42.03;;
15567;SDS011;7885;42.596;23.044;2024-02-04T07:56:47;57.73;;;40.83;;
15567;SDS011;7885;42.596;23.044;2024-02-04T07:59:14;52.80;;;39.83;;
15567;SDS011;7885;42.596;23.044;2024-02-04T08:01:41;52.27;;;38.17;;
15567;SDS011;7885;42.596;23.044;2024-02-04T08:04:07;54.93;;;38.60;;
15567;SDS011;7885;42.596;23.044;2024-02-04T08:06:37;46.00;;;35.07;;
15567;SDS011;7885;42.596;23.044;2024-02-04T08:09:04;44.67;;;35.03;;
15567;SDS011;7885;42.596;23.044;2024-02-04T08:11:31;110.40;;;85.40;;
15567;SDS011;7885;42.596;23.044;2024-02-04T08:13:58;106.83;;;78.90;;
15567;SDS011;7885;42.596;23.044;2024-02-04T08:16:25;115.23;;;87.10;;
15567;SDS011;7885;42.596;23.044;2024-02-04T08:18:52;114.80;;;81.53;;
15567;SDS011;7885;42.596;23.044;2024-02-04T08:21:18;101.47;;;72.03;;
15567;SDS011;7885;42.596;23.044;2024-02-04T08:23:46;64.90;;;45.43;;
15567;SDS011;7885;42.596;23.044;2024-02-04T08:26:13;61.93;;;44.73;;
15567;SDS011;7885;42.596;23.044;2024-02-04T08:28:40;56.17;;;38.30;;
15567;SDS011;7885;42.596;23.044;2024-02-04T08:31:07;106.87;;;74.07;;
15567;SDS011;7885;42.596;23.044;2024-02-04T08:33:34;100.30;;;71.60;;
15567;SDS011;7885;42.596;23.044;2024-02-04T08:36:00;88.20;;;61.07;;
15567;SDS011;7885;42.596;23.044;2024-02-04T08:38:27;81.43;;;56.97;;
15567;SDS011;7885;42.596;23.044;2024-02-04T08:40:55;92.37;;;65.30;;
15567;SDS011;7885;42.596;23.044;2024-02-04T08:43:22;102.57;;;74.53;;
15567;SDS011;7885;42.596;23.044;2024-02-04T08:45:48;97.20;;;69.97;;
15567;SDS011;7885;42.596;23.044;2024-02-04T08:48:15;53.90;;;42.93;;
15567;SDS011;7885;42.596;23.044;2024-02-04T08:50:42;11.93;;;7.83;;
15567;SDS011;7885;42.596;23.044;2024-02-04T08:53:08;15.97;;;11.53;;
15567;SDS011;7885;42.596;23.044;2024-02-04T08:55:35;21.83;;;15.83;;
15567;SDS011;7885;42.596;23.044;2024-02-04T08:58:03;22.50;;;17.43;;
15567;SDS011;7885;42.596;23.044;2024-02-04T09:00:30;25.27;;;17.37;;
15567;SDS011;7885;42.596;23.044;2024-02-04T09:02:57;17.27;;;12.07;;
15567;SDS011;7885;42.596;23.044;2024-02-04T09:05:23;18.23;;;12.30;;
15567;SDS011;7885;42.596;23.044;2024-02-04T09:07:50;19.37;;;12.70;;
15567;SDS011;7885;42.596;23.044;2024-02-04T09:10:17;18.27;;;11.90;;
15567;SDS011;7885;42.596;23.044;2024-02-04T09:12:44;16.03;;;11.57;;
15567;SDS011;7885;42.596;23.044;2024-02-04T09:15:12;18.33;;;12.10;;
15567;SDS011;7885;42.596;23.044;2024-02-04T09:17:39;20.33;;;16.30;;
15567;SDS011;7885;42.596;23.044;2024-02-04T09:20:06;22.15;;;18.45;;
15567;SDS011;7885;42.596;23.044;2024-02-04T09:25:55;22.83;;;17.70;;
15567;SDS011;7885;42.596;23.044;2024-02-04T09:28:22;19.83;;;16.53;;
15567;SDS011;7885;42.596;23.044;2024-02-04T09:30:50;20.17;;;16.67;;
15567;SDS011;7885;42.596;23.044;2024-02-04T09:33:16;23.00;;;19.37;;
15567;SDS011;7885;42.596;23.044;2024-02-04T09:35:43;16.20;;;13.87;;
15567;SDS011;7885;42.596;23.044;2024-02-04T09:38:11;10.33;;;8.57;;
15567;SDS011;7885;42.596;23.044;2024-02-04T09:40:38;7.67;;;6.10;;
15567;SDS011;7885;42.596;23.044;2024-02-04T09:43:05;11.63;;;9.47;;
15567;SDS011;7885;42.596;23.044;2024-02-04T09:45:32;7.40;;;6.40;;
15567;SDS011;7885;42.596;23.044;2024-02-04T09:48:01;11.23;;;9.17;;
15567;SDS011;7885;42.596;23.044;2024-02-04T09:50:29;7.10;;;6.40;;
15567;SDS011;7885;42.596;23.044;2024-02-04T09:52:58;9.87;;;7.17;;
15567;SDS011;7885;42.596;23.044;2024-02-04T09:55:26;6.30;;;4.87;;
15567;SDS011;7885;42.596;23.044;2024-02-04T09:57:55;7.80;;;6.93;;
15567;SDS011;7885;42.596;23.044;2024-02-04T10:00:21;9.03;;;7.63;;
15567;SDS011;7885;42.596;23.044;2024-02-04T10:02:51;7.97;;;5.40;;
15567;SDS011;7885;42.596;23.044;2024-02-04T10:05:23;7.90;;;5.87;;
15567;SDS011;7885;42.596;23.044;2024-02-04T10:07:49;5.93;;;5.30;;
15567;SDS011;7885;42.596;23.044;2024-02-04T10:10:16;5.87;;;5.27;;
15567;SDS011;7885;42.596;23.044;2024-02-04T10:12:43;4.47;;;2.80;;
15567;SDS011;7885;42.596;23.044;2024-02-04T10:15:10;2.70;;;2.50;;
15567;SDS011;7885;42.596;23.044;2024-02-04T10:17:41;3.17;;;2.90;;
15567;SDS011;7885;42.596;23.044;2024-02-04T10:20:09;5.53;;;4.00;;
15567;SDS011;7885;42.596;23.044;2024-02-04T10:22:38;10.03;;;4.20;;
15567;SDS011;7885;42.596;23.044;2024-02-04T10:25:05;3.37;;;2.90;;
15567;SDS011;7885;42.596;23.044;2024-02-04T10:27:33;15.83;;;13.03;;
15567;SDS011;7885;42.596;23.044;2024-02-04T10:30:00;3.20;;;2.90;;
15567;SDS011;7885;42.596;23.044;2024-02-04T10:32:26;4.77;;;2.53;;
15567;SDS011;7885;42.596;23.044;2024-02-04T10:34:53;3.50;;;3.20;;
15567;SDS011;7885;42.596;23.044;2024-02-04T10:37:21;3.77;;;2.30;;
15567;SDS011;7885;42.596;23.044;2024-02-04T10:39:50;3.17;;;2.80;;
15567;SDS011;7885;42.596;23.044;2024-02-04T10:42:16;8.73;;;6.53;;
15567;SDS011;7885;42.596;23.044;2024-02-04T10:44:47;6.00;;;4.80;;
15567;SDS011;7885;42.596;23.044;2024-02-04T10:47:19;4.97;;;4.47;;
15567;SDS011;7885;42.596;23.044;2024-02-04T10:49:49;11.17;;;7.80;;
15567;SDS011;7885;42.596;23.044;2024-02-04T10:52:19;7.33;;;5.67;;
15567;SDS011;7885;42.596;23.044;2024-02-04T10:54:46;8.23;;;7.10;;
15567;SDS011;7885;42.596;23.044;2024-02-04T10:57:18;18.17;;;13.70;;
15567;SDS011;7885;42.596;23.044;2024-02-04T10:59:46;10.97;;;8.70;;
15567;SDS011;7885;42.596;23.044;2024-02-04T11:02:14;6.50;;;5.67;;
15567;SDS011;7885;42.596;23.044;2024-02-04T11:04:42;7.17;;;6.03;;
15567;SDS011;7885;42.596;23.044;2024-02-04T11:07:10;7.30;;;6.40;;
15567;SDS011;7885;42.596;23.044;2024-02-04T11:09:39;13.27;;;9.43;;
15567;SDS011;7885;42.596;23.044;2024-02-04T11:12:10;6.40;;;5.00;;
15567;SDS011;7885;42.596;23.044;2024-02-04T11:18:07;3.70;;;2.90;;
15567;SDS011;7885;42.596;23.044;2024-02-04T11:20:54;6.43;;;4.87;;
15567;SDS011;7885;42.596;23.044;2024-02-04T11:23:41;2.53;;;2.20;;
15567;SDS011;7885;42.596;23.044;2024-02-04T11:26:22;12.83;;;8.57;;
15567;SDS011;7885;42.596;23.044;2024-02-04T11:38:56;12.90;;;8.90;;
15567;SDS011;7885;42.596;23.044;2024-02-04T11:41:23;12.53;;;8.20;;
15567;SDS011;7885;42.596;23.044;2024-02-04T11:43:51;10.93;;;8.23;;
15567;SDS011;7885;42.596;23.044;2024-02-04T11:46:19;5.67;;;5.13;;
15567;SDS011;7885;42.596;23.044;2024-02-04T11:48:51;7.27;;;5.77;;
15567;SDS011;7885;42.596;23.044;2024-02-04T11:51:21;9.00;;;7.13;;
15567;SDS011;7885;42.596;23.044;2024-02-04T11:53:48;5.10;;;4.20;;
15567;SDS011;7885;42.596;23.044;2024-02-04T11:56:17;6.77;;;5.30;;
15567;SDS011;7885;42.596;23.044;2024-02-04T11:58:44;4.03;;;3.63;;
15567;SDS011;7885;42.596;23.044;2024-02-04T12:01:11;12.83;;;10.37;;
15567;SDS011;7885;42.596;23.044;2024-02-04T12:03:38;15.20;;;11.70;;
15567;SDS011;7885;42.596;23.044;2024-02-04T12:06:05;7.57;;;5.87;;
15567;SDS011;7885;42.596;23.044;2024-02-04T12:08:34;14.37;;;9.80;;
15567;SDS011;7885;42.596;23.044;2024-02-04T12:11:01;19.03;;;12.83;;
15567;SDS011;7885;42.596;23.044;2024-02-04T12:13:29;14.30;;;10.83;;
15567;SDS011;7885;42.596;23.044;2024-02-04T12:15:57;12.37;;;9.07;;
15567;SDS011;7885;42.596;23.044;2024-02-04T12:18:24;14.87;;;10.27;;
15567;SDS011;7885;42.596;23.044;2024-02-04T12:20:50;10.73;;;8.37;;
15567;SDS011;7885;42.596;23.044;2024-02-04T12:23:18;14.37;;;10.50;;
15567;SDS011;7885;42.596;23.044;2024-02-04T12:25:46;13.83;;;8.83;;
15567;SDS011;7885;42.596;23.044;2024-02-04T12:28:13;8.93;;;7.00;;
15567;SDS011;7885;42.596;23.044;2024-02-04T12:30:51;8.53;;;5.63;;
15567;SDS011;7885;42.596;23.044;2024-02-04T12:33:18;7.70;;;5.20;;
15567;SDS011;7885;42.596;23.044;2024-02-04T12:35:48;15.77;;;11.10;;
15567;SDS011;7885;42.596;23.044;2024-02-04T12:38:16;14.40;;;10.10;;
15567;SDS011;7885;42.596;23.044;2024-02-04T12:40:43;16.93;;;9.43;;
15567;SDS011;7885;42.596;23.044;2024-02-04T12:43:10;10.10;;;5.07;;
15567;SDS011;7885;42.596;23.044;2024-02-04T12:45:37;9.97;;;6.60;;
15567;SDS011;7885;42.596;23.044;2024-02-04T12:48:06;12.10;;;8.00;;
15567;SDS011;7885;42.596;23.044;2024-02-04T12:50:36;10.47;;;7.00;;
15567;SDS011;7885;42.596;23.044;2024-02-04T12:53:03;10.63;;;6.57;;
15567;SDS011;7885;42.596;23.044;2024-02-04T12:55:32;19.00;;;13.40;;
15567;SDS011;7885;42.596;23.044;2024-02-04T12:58:02;7.63;;;6.17;;
15567;SDS011;7885;42.596;23.044;2024-02-04T13:00:30;12.10;;;7.27;;
15567;SDS011;7885;42.596;23.044;2024-02-04T13:02:57;16.83;;;11.73;;
15567;SDS011;7885;42.596;23.044;2024-02-04T13:05:25;10.87;;;8.97;;
15567;SDS011;7885;42.596;23.044;2024-02-04T13:07:55;11.53;;;7.70;;
15567;SDS011;7885;42.596;23.044;2024-02-04T13:10:23;12.93;;;9.73;;
15567;SDS011;7885;42.596;23.044;2024-02-04T13:13:03;10.80;;;8.83;;
15567;SDS011;7885;42.596;23.044;2024-02-04T13:15:33;11.77;;;9.40;;
15567;SDS011;7885;42.596;23.044;2024-02-04T13:18:04;8.37;;;7.00;;
15567;SDS011;7885;42.596;23.044;2024-02-04T13:20:32;9.80;;;7.93;;
15567;SDS011;7885;42.596;23.044;2024-02-04T13:22:59;15.47;;;11.27;;
15567;SDS011;7885;42.596;23.044;2024-02-04T13:25:28;12.40;;;10.10;;
15567;SDS011;7885;42.596;23.044;2024-02-04T13:27:55;7.57;;;5.43;;
15567;SDS011;7885;42.596;23.044;2024-02-04T13:30:22;3.93;;;3.47;;
15567;SDS011;7885;42.596;23.044;2024-02-04T13:32:49;6.50;;;4.93;;
15567;SDS011;7885;42.596;23.044;2024-02-04T13:35:16;7.83;;;6.40;;
15567;SDS011;7885;42.596;23.044;2024-02-04T13:37:45;8.70;;;6.23;;
15567;SDS011;7885;42.596;23.044;2024-02-04T13:40:13;4.77;;;4.23;;
15567;SDS011;7885;42.596;23.044;2024-02-04T13:42:40;3.73;;;2.90;;
15567;SDS011;7885;42.596;23.044;2024-02-04T13:45:07;5.53;;;4.90;;
15567;SDS011;7885;42.596;23.044;2024-02-04T13:47:34;7.80;;;6.37;;
15567;SDS011;7885;42.596;23.044;2024-02-04T13:50:02;11.27;;;8.60;;
15567;SDS011;7885;42.596;23.044;2024-02-04T13:52:29;9.57;;;7.37;;
15567;SDS011;7885;42.596;23.044;2024-02-04T13:54:57;11.63;;;7.90;;
15567;SDS011;7885;42.596;23.044;2024-02-04T13:57:24;12.37;;;6.43;;
15567;SDS011;7885;42.596;23.044;2024-02-04T13:59:51;9.93;;;6.30;;
15567;SDS011;7885;42.596;23.044;2024-02-04T14:02:17;7.37;;;5.57;;
15567;SDS011;7885;42.596;23.044;2024-02-04T14:04:44;11.83;;;7.43;;
15567;SDS011;7885;42.596;23.044;2024-02-04T14:07:11;16.60;;;9.60;;
15567;SDS011;7885;42.596;23.044;2024-02-04T14:09:38;16.80;;;10.17;;
15567;SDS011;7885;42.596;23.044;2024-02-04T14:12:06;11.10;;;6.97;;
15567;SDS011;7885;42.596;23.044;2024-02-04T14:14:34;15.60;;;10.53;;
15567;SDS011;7885;42.596;23.044;2024-02-04T14:17:00;15.60;;;9.80;;
15567;SDS011;7885;42.596;23.044;2024-02-04T14:19:27;11.87;;;7.73;;
15567;SDS011;7885;42.596;23.044;2024-02-04T14:21:54;15.43;;;9.27;;
15567;SDS011;7885;42.596;23.044;2024-02-04T14:24:21;20.33;;;12.17;;
15567;SDS011;7885;42.596;23.044;2024-02-04T14:26:47;10.53;;;7.23;;
15567;SDS011;7885;42.596;23.044;2024-02-04T14:29:15;13.80;;;9.53;;
15567;SDS011;7885;42.596;23.044;2024-02-04T14:31:42;15.13;;;11.37;;
15567;SDS011;7885;42.596;23.044;2024-02-04T14:34:09;23.07;;;13.67;;
15567;SDS011;7885;42.596;23.044;2024-02-04T14:36:35;23.00;;;13.30;;
15567;SDS011;7885;42.596;23.044;2024-02-04T14:39:02;21.07;;;12.47;;
15567;SDS011;7885;42.596;23.044;2024-02-04T14:41:31;14.83;;;9.70;;
15567;SDS011;7885;42.596;23.044;2024-02-04T14:43:58;12.40;;;9.03;;
15567;SDS011;7885;42.596;23.044;2024-02-04T14:46:26;12.23;;;8.80;;
15567;SDS011;7885;42.596;23.044;2024-02-04T14:48:52;17.57;;;10.90;;